Time;durP1;ratioP1;P1;durP2;ratioP2;P2;SDS_P1;SDS_P2;PMS_P1;PMS_P2;Temp;Humidity;BMP_temperature;BMP_pressure;BME280_temperature;BME280_humidity;BME280_pressure;Samples;Min_cycle;Max_cycle;Signal;HPM_P1;HPM_P2
2023/10/03 00:01:41;;;;;;;18.85;11.45;;;;;;;14.83;100.00;97010.56;5043741;28;20199;-55
2023/10/03 00:04:09;;;;;;;19.83;12.15;;;;;;;14.76;100.00;97014.84;5043201;28;20214;-55
2023/10/03 00:06:38;;;;;;;20.25;12.35;;;;;;;14.74;100.00;97006.19;5043491;28;20219;-55
2023/10/03 00:09:06;;;;;;;19.70;12.23;;;;;;;14.72;100.00;97011.69;5042970;28;20640;-55
2023/10/03 00:11:33;;;;;;;19.98;11.45;;;;;;;14.69;100.00;97011.16;5043471;28;20294;-55
2023/10/03 00:14:00;;;;;;;19.48;12.25;;;;;;;14.68;100.00;97010.31;5043087;28;20228;-55
2023/10/03 00:16:28;;;;;;;23.45;13.00;;;;;;;14.66;100.00;97011.47;5042846;28;20681;-54
2023/10/03 00:18:55;;;;;;;23.52;12.85;;;;;;;14.62;100.00;97003.00;5042255;28;20273;-56
2023/10/03 00:21:21;;;;;;;22.23;12.88;;;;;;;14.62;100.00;97005.66;5043373;28;20206;-57
2023/10/03 00:23:49;;;;;;;21.00;12.75;;;;;;;14.60;100.00;97002.28;5043251;28;20219;-55
2023/10/03 00:26:17;;;;;;;21.52;12.10;;;;;;;14.56;100.00;96998.28;5042618;28;20222;-55
2023/10/03 00:28:44;;;;;;;20.75;11.63;;;;;;;14.57;100.00;96999.13;5043195;28;20316;-56
2023/10/03 00:31:13;;;;;;;22.48;12.45;;;;;;;14.59;100.00;96994.47;5043014;28;20218;-56
2023/10/03 00:33:41;;;;;;;19.73;11.65;;;;;;;14.58;100.00;96988.31;5042483;28;20207;-55
2023/10/03 00:36:15;;;;;;;23.33;13.23;;;;;;;14.57;100.00;96997.28;5042200;28;20258;-56
2023/10/03 00:38:42;;;;;;;22.13;12.55;;;;;;;14.61;100.00;96990.66;5041950;28;20200;-57
2023/10/03 00:41:09;;;;;;;19.98;12.40;;;;;;;14.57;100.00;96991.13;5041643;28;21367;-55
2023/10/03 00:43:36;;;;;;;23.02;12.88;;;;;;;14.57;100.00;97001.78;5042193;28;20640;-65
2023/10/03 00:46:03;;;;;;;17.63;11.35;;;;;;;14.56;100.00;96990.28;5042564;28;20246;-55
2023/10/03 00:48:30;;;;;;;20.77;12.75;;;;;;;14.55;100.00;96993.97;5042202;28;20200;-54
2023/10/03 00:50:57;;;;;;;21.63;12.93;;;;;;;14.53;100.00;96987.94;5042396;28;20543;-55
2023/10/03 00:53:24;;;;;;;23.58;13.68;;;;;;;14.48;100.00;96992.94;5042150;28;20199;-56
2023/10/03 00:55:50;;;;;;;20.40;12.60;;;;;;;14.47;100.00;96991.25;5042471;28;20295;-55
2023/10/03 00:58:28;;;;;;;20.95;12.98;;;;;;;14.50;100.00;96993.59;5042270;28;20262;-56
2023/10/03 01:00:56;;;;;;;20.42;12.65;;;;;;;14.47;100.00;96991.25;5042748;28;20287;-56
2023/10/03 01:03:27;;;;;;;21.52;12.27;;;;;;;14.50;100.00;96988.28;5042238;28;20604;-55
2023/10/03 01:05:57;;;;;;;21.58;12.43;;;;;;;14.41;100.00;96978.59;5041946;28;20242;-55
2023/10/03 01:08:24;;;;;;;21.10;12.43;;;;;;;14.46;100.00;96978.94;5042384;28;20223;-56
2023/10/03 01:10:50;;;;;;;21.98;12.85;;;;;;;14.47;100.00;96975.28;5042362;28;20262;-55
2023/10/03 01:13:19;;;;;;;19.55;12.07;;;;;;;14.48;100.00;96976.13;5041760;28;20720;-54
2023/10/03 01:15:49;;;;;;;22.33;12.32;;;;;;;14.52;100.00;96977.47;5042541;28;20236;-55
2023/10/03 01:18:20;;;;;;;22.40;13.30;;;;;;;14.52;100.00;96967.69;5042334;28;20258;-56
2023/10/03 01:20:48;;;;;;;19.58;12.75;;;;;;;14.55;100.00;96961.19;5041769;28;20202;-55
2023/10/03 01:23:16;;;;;;;20.10;13.05;;;;;;;14.55;100.00;96959.38;5041892;28;20216;-56
2023/10/03 01:25:43;;;;;;;18.88;11.98;;;;;;;14.55;100.00;96956.72;5041722;28;20218;-55
2023/10/03 01:28:10;;;;;;;18.65;11.63;;;;;;;14.53;100.00;96958.69;5041473;28;20272;-56
2023/10/03 01:30:37;;;;;;;19.45;12.15;;;;;;;14.52;100.00;96965.00;5041510;28;20203;-55
2023/10/03 01:33:04;;;;;;;17.95;11.55;;;;;;;14.54;100.00;96957.69;5041610;28;20210;-56
2023/10/03 01:35:31;;;;;;;17.15;10.93;;;;;;;14.57;100.00;96962.69;5041736;28;20223;-55
2023/10/03 01:37:57;;;;;;;19.98;12.27;;;;;;;14.64;100.00;96962.88;5042008;28;20203;-55
2023/10/03 01:40:26;;;;;;;19.25;11.68;;;;;;;14.62;100.00;96965.72;5042123;28;20211;-55
2023/10/03 01:42:53;;;;;;;18.05;11.32;;;;;;;14.63;100.00;96964.69;5042059;28;20203;-55
2023/10/03 01:45:21;;;;;;;19.45;11.82;;;;;;;14.62;100.00;96963.06;5041653;28;20728;-54
2023/10/03 01:47:50;;;;;;;17.95;12.05;;;;;;;14.59;100.00;96954.56;5041583;28;20222;-55
2023/10/03 01:50:18;;;;;;;19.58;11.68;;;;;;;14.57;100.00;96959.19;5041015;28;20387;-55
2023/10/03 01:52:46;;;;;;;20.77;12.60;;;;;;;14.53;100.00;96957.84;5042051;28;20205;-56
2023/10/03 01:55:13;;;;;;;16.95;11.35;;;;;;;14.56;100.00;96947.72;5041754;28;20291;-55
2023/10/03 01:57:42;;;;;;;19.58;12.05;;;;;;;14.56;100.00;96952.22;5040956;28;20219;-55
2023/10/03 02:00:20;;;;;;;16.20;10.90;;;;;;;14.55;100.00;96954.03;5040895;28;20231;-54
2023/10/03 02:02:48;;;;;;;17.75;11.68;;;;;;;14.60;100.00;96943.72;5041107;28;20289;-55
2023/10/03 02:05:15;;;;;;;18.38;12.02;;;;;;;14.53;100.00;96948.03;5040571;28;20609;-55
2023/10/03 02:07:42;;;;;;;17.13;11.07;;;;;;;14.54;100.00;96947.03;5041299;28;20314;-55
2023/10/03 02:10:12;;;;;;;17.55;10.70;;;;;;;14.53;100.00;96950.69;5040509;28;20199;-55
2023/10/03 02:12:40;;;;;;;18.67;11.07;;;;;;;14.50;100.00;96948.34;5041281;28;20589;-55
2023/10/03 02:15:09;;;;;;;22.23;11.73;;;;;;;14.47;100.00;96948.69;5040692;28;20648;-55
2023/10/03 02:17:36;;;;;;;16.27;11.07;;;;;;;14.49;100.00;96953.84;5041120;28;20274;-55
2023/10/03 02:20:08;;;;;;;16.20;10.68;;;;;;;14.45;100.00;96956.81;5040986;28;20205;-55
2023/10/03 02:22:35;;;;;;;19.08;12.18;;;;;;;14.44;100.00;96951.66;5041125;28;20207;-55
2023/10/03 02:25:03;;;;;;;16.67;10.98;;;;;;;14.49;100.00;96946.69;5040794;28;20195;-56
2023/10/03 02:27:29;;;;;;;18.52;11.55;;;;;;;14.50;100.00;96943.03;5040398;28;20229;-54
2023/10/03 02:29:58;;;;;;;16.35;10.85;;;;;;;14.52;100.00;96932.25;5040859;28;20203;-55
2023/10/03 02:32:26;;;;;;;15.95;10.35;;;;;;;14.53;100.00;96932.06;5041288;28;20216;-55
2023/10/03 02:34:52;;;;;;;17.77;10.93;;;;;;;14.57;100.00;96935.22;5040373;28;20259;-55
2023/10/03 02:37:20;;;;;;;17.08;10.68;;;;;;;14.52;100.00;96929.56;5041297;28;20881;-54
2023/10/03 02:39:47;;;;;;;16.90;10.60;;;;;;;14.53;100.00;96925.91;5041216;28;20203;-54
2023/10/03 02:42:13;;;;;;;14.63;9.93;;;;;;;14.53;100.00;96932.06;5041185;28;20196;-55
2023/10/03 02:44:40;;;;;;;15.25;10.70;;;;;;;14.53;100.00;96926.75;5040654;28;20199;-55
2023/10/03 02:47:08;;;;;;;15.77;10.13;;;;;;;14.52;100.00;96911.78;5040827;28;20310;-55
2023/10/03 02:49:34;;;;;;;13.43;9.43;;;;;;;14.53;100.00;96924.09;5040993;28;20212;-55
2023/10/03 02:52:03;;;;;;;13.68;10.02;;;;;;;14.54;100.00;96925.75;5047809;28;20211;-56
2023/10/03 02:54:32;;;;;;;11.43;9.02;;;;;;;14.57;100.00;96922.78;5045172;28;20351;-56
2023/10/03 02:56:59;;;;;;;17.23;10.80;;;;;;;14.58;100.00;96920.94;5048643;28;20196;-55
2023/10/03 02:59:25;;;;;;;15.40;10.32;;;;;;;14.58;100.00;96929.78;5047346;28;20243;-54
2023/10/03 03:01:52;;;;;;;15.50;9.70;;;;;;;14.55;100.00;96929.25;5040780;28;20605;-55
2023/10/03 03:04:21;;;;;;;13.30;10.38;;;;;;;14.53;100.00;96929.41;5043039;28;20672;-55
2023/10/03 03:06:50;;;;;;;14.50;9.80;;;;;;;14.54;100.00;96936.41;5044673;28;20255;-54
2023/10/03 03:09:17;;;;;;;14.93;9.60;;;;;;;14.53;100.00;96940.03;5044885;28;20268;-54
2023/10/03 03:11:47;;;;;;;12.48;9.65;;;;;;;14.52;100.00;96935.75;5045129;28;20648;-56
2023/10/03 03:14:14;;;;;;;16.63;10.68;;;;;;;14.61;100.00;96931.25;5045564;28;20211;-56
2023/10/03 03:16:40;;;;;;;14.70;9.40;;;;;;;14.63;100.00;96935.44;5044845;28;20211;-55
2023/10/03 03:19:08;;;;;;;18.50;11.00;;;;;;;14.65;100.00;96928.13;5044599;28;20208;-55
2023/10/03 03:21:36;;;;;;;13.57;10.30;;;;;;;14.63;100.00;96919.44;5044544;28;20262;-55
2023/10/03 03:24:08;;;;;;;14.15;10.05;;;;;;;14.67;100.00;96925.28;5045055;28;20290;-55
2023/10/03 03:26:39;;;;;;;12.73;9.15;;;;;;;14.68;100.00;96938.44;5044105;28;20222;-55
2023/10/03 03:29:20;;;;;;;13.88;9.82;;;;;;;14.68;100.00;96930.47;5043883;28;20215;-55
2023/10/03 03:31:46;;;;;;;15.98;10.30;;;;;;;14.67;100.00;96936.78;5044247;28;20207;-56
2023/10/03 03:34:13;;;;;;;16.10;10.05;;;;;;;14.66;100.00;96937.78;5043503;28;20212;-56
2023/10/03 03:36:40;;;;;;;11.10;9.57;;;;;;;14.63;100.00;96937.28;5043969;28;20207;-54
2023/10/03 03:39:15;;;;;;;14.77;9.57;;;;;;;14.61;100.00;96948.06;5043961;28;20222;-55
2023/10/03 03:41:42;;;;;;;14.15;10.13;;;;;;;14.59;100.00;96942.09;5044159;28;20199;-55
2023/10/03 03:44:11;;;;;;;14.48;9.02;;;;;;;14.58;100.00;96948.41;5043681;28;20531;-55
2023/10/03 03:46:40;;;;;;;13.43;9.95;;;;;;;14.54;100.00;96941.72;5043656;28;20211;-54
2023/10/03 03:49:06;;;;;;;14.75;9.60;;;;;;;14.51;100.00;96950.03;5043571;28;20207;-55
2023/10/03 03:51:33;;;;;;;14.18;9.48;;;;;;;14.48;100.00;96947.69;5043975;28;20196;-54
2023/10/03 03:54:01;;;;;;;11.70;9.52;;;;;;;14.44;100.00;96943.69;5043153;28;20204;-55
2023/10/03 03:56:28;;;;;;;13.52;10.18;;;;;;;14.39;100.00;96943.31;5044189;28;20266;-55
2023/10/03 03:58:54;;;;;;;15.40;9.32;;;;;;;14.40;100.00;96937.84;5043644;28;20239;-55
2023/10/03 04:01:21;;;;;;;14.45;9.80;;;;;;;14.38;100.00;96941.66;5043483;28;20207;-55
2023/10/03 04:03:54;;;;;;;14.70;9.82;;;;;;;14.35;100.00;96934.81;5043874;28;20307;-55
2023/10/03 04:06:21;;;;;;;12.13;9.18;;;;;;;14.33;100.00;96935.94;5043102;28;20226;-55
2023/10/03 04:08:49;;;;;;;13.65;10.02;;;;;;;14.32;100.00;96940.44;5043603;28;20231;-55
2023/10/03 04:11:17;;;;;;;15.63;9.98;;;;;;;14.29;100.00;96935.44;5043317;28;20748;-56
2023/10/03 04:13:52;;;;;;;12.13;9.23;;;;;;;14.30;100.00;96936.25;5042763;28;20215;-55
2023/10/03 04:16:21;;;;;;;15.18;9.93;;;;;;;14.27;100.00;96936.59;5043235;28;20261;-56
2023/10/03 04:18:49;;;;;;;13.27;9.80;;;;;;;14.24;100.00;96931.59;5042281;28;20291;-55
2023/10/03 04:21:15;;;;;;;14.23;9.57;;;;;;;14.21;100.00;96937.19;5043203;28;20217;-55
2023/10/03 04:23:43;;;;;;;14.88;10.35;;;;;;;14.19;100.00;96931.22;5043328;28;20214;-57
2023/10/03 04:26:10;;;;;;;14.30;10.17;;;;;;;14.19;100.00;96936.53;5043105;28;20246;-55
2023/10/03 04:28:38;;;;;;;14.98;10.98;;;;;;;14.19;100.00;96928.56;5042815;28;20746;-56
2023/10/03 04:31:05;;;;;;;12.65;9.57;;;;;;;14.14;100.00;96930.84;5043216;28;20229;-54
2023/10/03 04:33:32;;;;;;;15.18;9.63;;;;;;;14.17;100.00;96926.03;5042513;28;20234;-58
2023/10/03 04:36:04;;;;;;;14.05;10.07;;;;;;;14.17;100.00;96919.91;5044017;28;20213;-55
2023/10/03 04:38:31;;;;;;;16.13;9.90;;;;;;;14.13;100.00;96926.53;5044726;28;20196;-54
2023/10/03 04:40:58;;;;;;;12.73;9.52;;;;;;;14.11;100.00;96924.03;5049067;28;20843;-55
2023/10/03 04:43:29;;;;;;;13.65;9.85;;;;;;;14.08;100.00;96928.81;5048042;28;20214;-55
2023/10/03 04:45:57;;;;;;;13.43;9.27;;;;;;;14.09;100.00;96919.88;5046387;28;20207;-55
2023/10/03 04:48:24;;;;;;;13.35;9.40;;;;;;;14.07;100.00;96924.50;5046256;28;20603;-62
2023/10/03 04:50:50;;;;;;;11.48;9.00;;;;;;;14.06;100.00;96928.16;5047338;28;20207;-55
2023/10/03 04:53:18;;;;;;;14.85;9.25;;;;;;;14.05;100.00;96926.47;5049140;28;20235;-55
2023/10/03 04:55:47;;;;;;;12.63;9.13;;;;;;;14.02;100.00;96932.13;5054736;28;20221;-56
2023/10/03 04:58:14;;;;;;;13.18;10.05;;;;;;;14.01;100.00;96933.94;5052542;28;20192;-54
2023/10/03 05:00:42;;;;;;;12.70;9.80;;;;;;;14.00;100.00;96934.09;5060680;28;20227;-53
2023/10/03 05:03:10;;;;;;;11.30;9.35;;;;;;;13.96;100.00;96928.25;5055974;28;20224;-55
2023/10/03 05:05:37;;;;;;;11.02;9.00;;;;;;;14.00;100.00;96929.59;5060871;28;20254;-53
2023/10/03 05:08:04;;;;;;;13.48;9.57;;;;;;;14.00;100.00;96928.75;5046139;28;20219;-54
2023/10/03 05:10:30;;;;;;;12.40;8.75;;;;;;;14.00;100.00;96936.75;5042294;28;20643;-55
2023/10/03 05:12:58;;;;;;;11.90;9.00;;;;;;;13.98;100.00;96931.59;5041766;28;20257;-54
2023/10/03 05:15:26;;;;;;;11.88;9.13;;;;;;;13.99;100.00;96937.75;5041710;28;20257;-54
2023/10/03 05:17:54;;;;;;;12.67;9.30;;;;;;;14.00;100.00;96936.75;5041486;28;20636;-53
2023/10/03 05:20:34;;;;;;;14.68;9.35;;;;;;;14.00;100.00;96934.09;5041267;28;20212;-54
2023/10/03 05:23:01;;;;;;;13.45;9.25;;;;;;;14.00;100.00;96942.91;5041728;28;20195;-53
2023/10/03 05:25:28;;;;;;;11.25;9.40;;;;;;;14.02;100.00;96940.09;5043923;28;20208;-54
2023/10/03 05:27:54;;;;;;;13.43;9.27;;;;;;;14.03;100.00;96939.13;5044898;28;20238;-55
2023/10/03 05:30:23;;;;;;;13.97;10.20;;;;;;;14.03;100.00;96939.13;5044401;28;20207;-54
2023/10/03 05:32:51;;;;;;;13.05;9.82;;;;;;;14.05;100.00;96939.78;5042912;28;20195;-54
2023/10/03 05:35:18;;;;;;;17.15;10.23;;;;;;;14.04;100.00;96938.94;5041943;28;20203;-55
2023/10/03 05:37:46;;;;;;;15.47;9.63;;;;;;;14.08;100.00;96942.13;5041714;28;20203;-55
2023/10/03 05:40:18;;;;;;;15.13;10.13;;;;;;;14.09;100.00;96938.47;5041771;28;20199;-54
2023/10/03 05:42:47;;;;;;;13.13;9.60;;;;;;;14.12;100.00;96943.47;5042096;28;20292;-55
2023/10/03 05:45:14;;;;;;;14.45;9.68;;;;;;;14.12;100.00;96946.13;5041174;28;20868;-54
2023/10/03 05:47:41;;;;;;;14.90;10.32;;;;;;;14.18;100.00;96945.50;5041791;28;20531;-55
2023/10/03 05:50:10;;;;;;;12.57;10.63;;;;;;;14.19;100.00;96947.16;5041010;28;20208;-54
2023/10/03 05:52:36;;;;;;;13.80;9.70;;;;;;;14.22;100.00;96955.66;5041384;28;20200;-55
2023/10/03 05:55:05;;;;;;;16.67;9.55;;;;;;;14.29;100.00;96947.88;5040940;28;20211;-54
2023/10/03 05:57:33;;;;;;;14.00;9.73;;;;;;;14.33;100.00;96943.94;5041244;28;20268;-55
2023/10/03 05:59:59;;;;;;;17.80;10.73;;;;;;;14.38;100.00;96952.31;5040902;28;20231;-55
2023/10/03 06:02:26;;;;;;;16.25;9.95;;;;;;;14.41;100.00;96954.66;5040661;28;20210;-54
2023/10/03 06:04:54;;;;;;;14.98;10.23;;;;;;;14.49;100.00;96953.84;5040291;28;20301;-54
2023/10/03 06:07:20;;;;;;;17.80;10.45;;;;;;;14.50;100.00;96959.00;5041256;28;20628;-54
2023/10/03 06:09:46;;;;;;;12.63;10.25;;;;;;;14.60;100.00;96948.22;5041181;28;20200;-54
2023/10/03 06:12:14;;;;;;;14.52;9.38;;;;;;;14.66;100.00;96955.59;5041219;28;20296;-54
2023/10/03 06:14:41;;;;;;;15.30;9.48;;;;;;;14.68;100.00;96957.09;5041716;28;20204;-55
2023/10/03 06:17:08;;;;;;;13.43;9.90;;;;;;;14.70;100.00;96963.06;5041009;28;20218;-54
2023/10/03 06:19:35;;;;;;;13.45;10.02;;;;;;;14.75;100.00;96963.44;5040343;28;20222;-54
2023/10/03 06:22:03;;;;;;;11.18;9.05;;;;;;;14.77;100.00;96961.44;5041301;28;20295;-54
2023/10/03 06:24:31;;;;;;;13.00;9.30;;;;;;;14.83;100.00;96965.28;5040513;28;20210;-54
2023/10/03 06:26:57;;;;;;;13.85;9.70;;;;;;;14.84;100.00;96975.75;5040714;28;20625;-53
2023/10/03 06:29:25;;;;;;;14.38;10.15;;;;;;;14.84;100.00;96973.09;5041233;28;20237;-55
2023/10/03 06:31:52;;;;;;;10.95;9.15;;;;;;;15.17;100.00;96957.22;5041059;28;20210;-54
2023/10/03 06:34:19;;;;;;;17.08;10.40;;;;;;;15.93;100.00;96969.28;5040805;28;20207;-55
2023/10/03 06:36:46;;;;;;;16.90;9.98;;;;;;;16.25;100.00;96971.09;5041588;28;20210;-55
2023/10/03 06:39:13;;;;;;;13.45;9.93;;;;;;;16.36;100.00;96976.06;5045316;28;20207;-55
2023/10/03 06:41:39;;;;;;;15.45;9.70;;;;;;;16.27;100.00;96974.41;5045069;28;20200;-54
2023/10/03 06:44:06;;;;;;;12.40;9.18;;;;;;;16.20;100.00;96975.25;5044600;28;20208;-55
2023/10/03 06:46:34;;;;;;;14.65;9.52;;;;;;;16.20;100.00;96980.56;5044865;28;20212;-56
2023/10/03 06:49:01;;;;;;;13.80;10.25;;;;;;;16.17;100.00;96972.91;5044850;28;20281;-54
2023/10/03 06:51:27;;;;;;;13.68;10.02;;;;;;;16.15;100.00;96980.28;5045173;28;20226;-54
2023/10/03 06:53:54;;;;;;;15.00;11.05;;;;;;;16.19;100.00;96981.59;5044768;28;20211;-55
2023/10/03 06:56:20;;;;;;;13.57;10.48;;;;;;;16.21;100.00;96975.09;5044758;28;20207;-54
2023/10/03 06:58:47;;;;;;;14.23;9.93;;;;;;;16.26;100.00;96982.59;5044776;28;20301;-55
2023/10/03 07:01:13;;;;;;;14.60;10.38;;;;;;;16.32;100.00;96972.06;5044694;28;20301;-54
2023/10/03 07:03:41;;;;;;;13.27;10.60;;;;;;;16.39;100.00;96977.53;5044202;28;20294;-55
2023/10/03 07:06:08;;;;;;;14.27;10.68;;;;;;;16.46;100.00;96975.03;5044753;28;20212;-55
2023/10/03 07:08:34;;;;;;;17.80;10.63;;;;;;;16.52;100.00;96977.84;5044114;28;20223;-55
2023/10/03 07:11:01;;;;;;;17.33;10.77;;;;;;;16.58;100.00;96977.16;5043887;28;20206;-55
2023/10/03 07:13:30;;;;;;;17.30;11.65;;;;;;;16.69;100.00;96984.81;5044415;28;20211;-55
2023/10/03 07:15:59;;;;;;;17.98;10.93;;;;;;;16.77;100.00;96981.28;5043683;28;20215;-55
2023/10/03 07:18:25;;;;;;;14.02;9.88;;;;;;;16.84;100.00;96988.44;5044066;28;20646;-54
2023/10/03 07:20:55;;;;;;;16.50;11.13;;;;;;;16.93;100.00;96982.03;5043275;28;20215;-55
2023/10/03 07:23:22;;;;;;;14.82;10.85;;;;;;;16.99;100.00;96979.69;5043544;28;20643;-54
2023/10/03 07:25:48;;;;;;;15.98;11.20;;;;;;;17.08;100.00;96990.16;5043639;28;20212;-54
2023/10/03 07:28:15;;;;;;;11.90;9.77;;;;;;;17.14;100.00;96983.28;5044308;28;20220;-55
2023/10/03 07:30:42;;;;;;;15.90;11.30;;;;;;;17.18;100.00;96987.28;5044027;28;20280;-54
2023/10/03 07:33:10;;;;;;;13.25;10.13;;;;;;;17.23;100.00;96976.88;5043653;28;20203;-55
2023/10/03 07:35:41;;;;;;;16.83;10.52;;;;;;;17.31;100.00;96980.34;5043582;28;20294;-55
2023/10/03 07:38:11;;;;;;;13.20;10.27;;;;;;;17.41;100.00;96982.78;5044171;28;20205;-55
2023/10/03 07:40:38;;;;;;;14.65;11.00;;;;;;;17.54;100.00;96980.34;5044347;28;20211;-54
2023/10/03 07:43:07;;;;;;;14.45;9.85;;;;;;;17.65;100.00;96982.63;5043606;28;20646;-53
2023/10/03 07:45:33;;;;;;;11.93;9.85;;;;;;;17.80;100.00;96985.38;5044139;28;20291;-54
2023/10/03 07:48:04;;;;;;;12.25;10.27;;;;;;;17.96;100.00;96984.41;5042993;28;20287;-55
2023/10/03 07:50:31;;;;;;;15.50;11.32;;;;;;;18.13;100.00;96992.13;5042733;28;20629;-54
2023/10/03 07:52:57;;;;;;;14.50;10.63;;;;;;;18.24;100.00;96993.53;5043083;28;20557;-55
2023/10/03 07:55:26;;;;;;;16.92;10.68;;;;;;;18.34;100.00;96994.09;5043420;28;20207;-55
2023/10/03 07:57:55;;;;;;;16.95;10.60;;;;;;;18.48;100.00;96990.59;5043451;28;20235;-55
2023/10/03 08:00:26;;;;;;;12.40;9.57;;;;;;;18.59;100.00;96987.50;5043096;28;20244;-56
2023/10/03 08:02:52;;;;;;;12.95;9.57;;;;;;;18.73;100.00;96983.16;5043209;28;20195;-54
2023/10/03 08:05:20;;;;;;;15.43;9.60;;;;;;;18.86;100.00;96981.47;5043313;28;20199;-55
2023/10/03 08:07:48;;;;;;;17.00;10.85;;;;;;;19.03;100.00;96984.75;5043615;28;20257;-56
2023/10/03 08:10:16;;;;;;;19.50;10.57;;;;;;;19.12;100.00;96977.47;5042874;28;20636;-55
2023/10/03 08:12:47;;;;;;;13.15;8.93;;;;;;;19.25;100.00;96982.97;5043495;28;20234;-55
2023/10/03 08:15:17;;;;;;;15.77;9.45;;;;;;;19.38;100.00;96980.44;5043482;28;20219;-55
2023/10/03 08:17:45;;;;;;;10.35;8.25;;;;;;;19.52;100.00;96984.94;5045130;28;20208;-54
2023/10/03 08:20:14;;;;;;;14.48;8.85;;;;;;;19.66;100.00;96981.38;5043432;28;20262;-56
2023/10/03 08:22:41;;;;;;;10.02;8.05;;;;;;;19.79;100.00;96981.53;5043807;28;20207;-55
2023/10/03 08:25:09;;;;;;;10.15;7.65;;;;;;;19.95;100.00;96984.94;5043954;28;20385;-55
2023/10/03 08:27:35;;;;;;;8.25;6.72;;;;;;;20.13;100.00;96985.31;5043270;28;20303;-55
2023/10/03 08:30:04;;;;;;;8.88;6.53;;;;;;;20.29;98.00;96985.06;5042649;28;20254;-56
2023/10/03 08:32:31;;;;;;;9.70;6.93;;;;;;;20.50;91.87;96985.03;5042434;28;20230;-56
2023/10/03 08:34:57;;;;;;;7.60;6.38;;;;;;;20.74;93.52;96992.59;5042032;28;20200;-54
2023/10/03 08:37:24;;;;;;;8.15;6.60;;;;;;;20.95;90.76;96988.16;5042812;28;20204;-54
2023/10/03 08:39:52;;;;;;;9.00;6.38;;;;;;;21.09;89.85;96990.72;5042262;28;20686;-54
2023/10/03 08:42:21;;;;;;;9.52;7.10;;;;;;;21.19;86.89;96990.38;5042547;28;20639;-54
2023/10/03 08:44:52;;;;;;;10.73;6.75;;;;;;;21.32;88.63;96993.97;5042493;28;20647;-55
2023/10/03 08:47:28;;;;;;;9.90;6.80;;;;;;;21.46;87.77;96992.13;5042748;28;20269;-55
2023/10/03 08:50:00;;;;;;;8.65;6.50;;;;;;;21.64;89.76;97002.34;5042213;28;20206;-54
2023/10/03 08:52:39;;;;;;;8.38;6.90;;;;;;;21.78;82.43;96988.69;5042699;28;20203;-55
2023/10/03 08:55:08;;;;;;;8.27;6.53;;;;;;;21.92;82.01;96999.50;5042590;28;20512;-53
2023/10/03 08:57:35;;;;;;;9.40;6.53;;;;;;;22.08;79.52;97007.19;5042842;28;20539;-55
2023/10/03 09:00:03;;;;;;;7.65;6.60;;;;;;;22.10;76.52;97005.13;5041928;28;20332;-54
2023/10/03 09:02:40;;;;;;;8.20;6.18;;;;;;;22.23;77.14;97008.66;5042228;28;20290;-55
2023/10/03 09:05:15;;;;;;;9.02;6.90;;;;;;;22.31;78.76;97011.16;5042300;28;20198;-54
2023/10/03 09:07:44;;;;;;;7.80;6.47;;;;;;;22.54;78.43;97015.25;5042234;28;20207;-54
2023/10/03 09:10:22;;;;;;;9.02;6.57;;;;;;;22.54;76.69;97008.00;5042001;28;20228;-55
2023/10/03 09:12:49;;;;;;;12.25;6.75;;;;;;;22.50;78.63;97006.75;5042395;28;20211;-54
2023/10/03 09:15:17;;;;;;;7.30;6.28;;;;;;;22.47;79.28;97017.97;5041579;28;20662;-55
2023/10/03 09:17:49;;;;;;;8.77;6.30;;;;;;;22.58;77.91;97011.94;5041818;28;20208;-54
2023/10/03 09:20:20;;;;;;;8.90;6.53;;;;;;;22.60;79.18;97022.53;5041574;28;20219;-54
2023/10/03 09:22:47;;;;;;;9.68;6.82;;;;;;;22.65;78.07;97014.63;5042704;28;20191;-55
2023/10/03 09:25:16;;;;;;;8.68;6.10;;;;;;;22.59;80.22;97015.47;5041723;28;20199;-54
2023/10/03 09:27:44;;;;;;;7.38;6.05;;;;;;;22.45;85.35;97005.75;5042560;28;20204;-57
2023/10/03 09:30:22;;;;;;;8.07;6.65;;;;;;;22.43;80.97;97005.94;5042771;28;20852;-54
2023/10/03 09:32:51;;;;;;;10.38;7.00;;;;;;;22.36;83.16;97007.81;5041655;28;20315;-55
2023/10/03 09:35:17;;;;;;;7.80;6.30;;;;;;;22.36;82.96;96999.72;5041186;28;20210;-55
2023/10/03 09:37:48;;;;;;;9.50;6.85;;;;;;;22.39;81.20;96993.91;5041820;28;20207;-55
2023/10/03 09:40:17;;;;;;;9.70;7.38;;;;;;;22.48;79.86;97003.47;5041495;28;20278;-54
2023/10/03 09:42:48;;;;;;;10.50;6.70;;;;;;;22.63;78.71;96990.59;5041768;28;20233;-56
2023/10/03 09:45:17;;;;;;;8.68;5.90;;;;;;;22.68;77.18;96998.91;5041869;28;20230;-55
2023/10/03 09:47:44;;;;;;;7.38;5.82;;;;;;;22.72;78.30;96992.06;5041379;28;20270;-55
2023/10/03 09:50:12;;;;;;;8.18;6.25;;;;;;;22.78;80.09;96993.88;5041424;28;20245;-55
2023/10/03 09:52:44;;;;;;;8.07;5.90;;;;;;;22.85;74.03;96993.06;5041962;28;20254;-54
2023/10/03 09:55:22;;;;;;;8.55;5.63;;;;;;;22.85;75.05;96991.19;5041684;28;20203;-55
2023/10/03 09:57:51;;;;;;;8.45;5.90;;;;;;;22.73;78.16;96991.00;5041396;28;20253;-54
2023/10/03 10:00:38;;;;;;;9.90;6.43;;;;;;;22.79;75.24;96984.78;5040767;28;20286;-55
2023/10/03 10:03:06;;;;;;;6.70;5.78;;;;;;;22.75;80.61;96985.41;5041234;28;20208;-55
2023/10/03 10:05:34;;;;;;;7.45;6.35;;;;;;;22.89;78.98;96984.31;5040744;28;21271;-55
2023/10/03 10:08:08;;;;;;;7.20;5.90;;;;;;;23.16;77.96;96990.47;5041089;28;20202;-54
2023/10/03 10:10:35;;;;;;;7.60;6.00;;;;;;;23.53;80.82;96989.69;5041035;28;20215;-53
2023/10/03 10:13:12;;;;;;;8.60;5.93;;;;;;;23.97;79.55;96979.88;5040613;28;20261;-55
2023/10/03 10:16:11;;;;;;;9.65;6.03;;;;;;;24.49;76.82;96982.19;5041241;28;20202;-56
2023/10/03 10:18:57;;;;;;;8.52;5.63;;;;;;;24.60;66.59;96975.22;5040746;28;20257;-55
2023/10/03 10:21:30;;;;;;;7.40;5.78;;;;;;;24.62;69.79;96981.25;5041431;28;20214;-55
2023/10/03 10:24:24;;;;;;;6.03;5.43;;;;;;;24.51;68.97;96980.09;5041174;28;20291;-55
2023/10/03 10:26:53;;;;;;;7.60;5.60;;;;;;;24.65;69.17;96987.03;5041225;28;20203;-55
2023/10/03 10:29:20;;;;;;;8.02;5.30;;;;;;;24.72;68.64;96976.97;5042332;28;20242;-54
2023/10/03 10:31:49;;;;;;;8.63;6.15;;;;;;;25.00;69.32;96979.19;5041081;28;20281;-55
2023/10/03 10:34:37;;;;;;;8.88;6.10;;;;;;;25.18;66.68;96979.19;5040928;28;20208;-54
2023/10/03 10:37:09;;;;;;;6.88;5.32;;;;;;;25.48;68.05;96971.09;5041020;28;20201;-55
2023/10/03 10:40:21;;;;;;;7.35;6.10;;;;;;;25.53;65.05;96970.44;5041640;28;20286;-54
2023/10/03 10:42:59;;;;;;;7.95;5.47;;;;;;;25.50;67.00;96969.00;5041516;28;20199;-55
2023/10/03 10:45:26;;;;;;;9.38;5.70;;;;;;;25.70;68.89;96966.88;5040909;28;20212;-55
2023/10/03 10:47:54;;;;;;;6.63;5.93;;;;;;;26.10;63.16;96960.84;5040681;28;20534;-55
2023/10/03 10:50:25;;;;;;;10.65;5.95;;;;;;;26.42;60.82;96962.22;5040903;28;20258;-54
2023/10/03 10:52:55;;;;;;;7.85;5.97;;;;;;;26.09;65.08;96951.06;5040815;28;20219;-55
2023/10/03 10:55:23;;;;;;;7.20;5.97;;;;;;;26.44;63.75;96954.66;5041624;28;20227;-54
2023/10/03 10:58:02;;;;;;;8.32;5.43;;;;;;;26.83;62.15;96949.59;5042407;28;20533;-54
2023/10/03 11:00:29;;;;;;;5.55;5.05;;;;;;;26.89;59.20;96938.63;5040393;28;20231;-55
2023/10/03 11:02:55;;;;;;;6.10;5.50;;;;;;;26.98;61.65;96941.81;5040929;28;20203;-54
2023/10/03 11:05:21;;;;;;;6.78;6.00;;;;;;;27.46;59.17;96936.84;5040128;28;20252;-55
2023/10/03 11:07:50;;;;;;;7.68;5.55;;;;;;;27.57;60.51;96930.53;5040599;28;20207;-55
2023/10/03 11:10:18;;;;;;;6.88;4.88;;;;;;;28.05;56.62;96923.78;5040765;28;20292;-55
2023/10/03 11:12:45;;;;;;;5.97;4.80;;;;;;;28.58;57.21;96940.44;5040562;28;20215;-55
2023/10/03 11:15:14;;;;;;;5.28;4.78;;;;;;;28.85;54.99;96928.88;5041606;28;20268;-54
2023/10/03 11:17:41;;;;;;;6.78;5.18;;;;;;;29.33;51.84;96920.00;5041751;28;20217;-56
2023/10/03 11:20:10;;;;;;;7.22;4.65;;;;;;;29.57;52.13;96921.34;5041488;28;20223;-56
2023/10/03 11:22:38;;;;;;;5.95;4.75;;;;;;;29.51;52.14;96916.94;5040558;28;20199;-54
2023/10/03 11:25:09;;;;;;;4.85;4.35;;;;;;;29.73;52.36;96911.41;5043261;28;20218;-54